createdAt,value
2023-02-11T00:01:55.643Z,88.80
2023-02-11T00:04:24.123Z,104.78
2023-02-11T00:06:52.644Z,84.47
2023-02-11T00:09:21.363Z,82.97
2023-02-11T00:11:49.975Z,89.15
2023-02-11T00:14:18.486Z,90.35
2023-02-11T00:16:48.403Z,106.50
2023-02-11T00:19:17.174Z,81.68
2023-02-11T00:21:45.746Z,90.13
2023-02-11T00:24:14.405Z,95.78
2023-02-11T00:26:43.067Z,98.57
2023-02-11T00:29:11.750Z,83.13
2023-02-11T00:31:42.450Z,92.35
2023-02-11T00:34:12.497Z,85.78
2023-02-11T00:36:41.739Z,91.10
2023-02-11T00:39:10.651Z,91.82
2023-02-11T00:41:39.232Z,86.43
2023-02-11T00:44:08.815Z,97.03
2023-02-11T00:46:37.518Z,91.72
2023-02-11T00:49:06.050Z,91.05
2023-02-11T00:51:36.085Z,101.25
2023-02-11T00:54:06.028Z,88.28
2023-02-11T00:56:35.838Z,90.70
2023-02-11T00:59:04.463Z,99.50
2023-02-11T01:01:33.246Z,96.00
2023-02-11T01:04:02.076Z,89.82
2023-02-11T01:06:30.672Z,88.45
2023-02-11T01:09:01.175Z,87.70
2023-02-11T01:11:29.716Z,98.30
2023-02-11T01:13:58.218Z,84.15
2023-02-11T01:16:26.957Z,88.85
2023-02-11T01:18:55.636Z,95.18
2023-02-11T01:21:24.170Z,95.32
2023-02-11T01:23:53.605Z,91.00
2023-02-11T01:26:23.523Z,92.60
2023-02-11T01:28:52.242Z,94.15
2023-02-11T01:31:21.406Z,82.15
2023-02-11T01:33:50.224Z,94.05
2023-02-11T01:36:18.741Z,84.78
2023-02-11T01:38:47.463Z,100.47
2023-02-11T01:41:16.235Z,86.15
2023-02-11T01:43:49.215Z,91.07
2023-02-11T01:46:35.388Z,87.55
2023-02-11T01:49:10.827Z,104.82
2023-02-11T01:51:44.956Z,88.68
2023-02-11T01:54:38.490Z,94.30
2023-02-11T01:57:25.010Z,84.43
2023-02-11T02:00:07.831Z,97.35
2023-02-11T02:02:54.259Z,89.25
2023-02-11T02:05:36.163Z,101.28
2023-02-11T02:08:15.120Z,97.57
2023-02-11T02:10:46.912Z,98.65
2023-02-11T02:13:18.303Z,91.45
2023-02-11T02:15:53.988Z,83.88
2023-02-11T02:18:41.408Z,94.28
2023-02-11T02:22:14.227Z,101.95
2023-02-11T02:25:26.234Z,90.10
2023-02-11T02:28:15.500Z,103.10
2023-02-11T02:31:24.329Z,92.55
2023-02-11T02:34:03.486Z,85.13
2023-02-11T02:36:41.845Z,101.28
2023-02-11T02:39:18.331Z,81.47
2023-02-11T02:41:50.175Z,90.47
2023-02-11T02:44:21.072Z,96.43
2023-02-11T02:46:50.099Z,96.85
2023-02-11T02:49:20.264Z,90.35
2023-02-11T02:52:20.268Z,98.30
2023-02-11T02:55:19.672Z,80.03
2023-02-11T02:58:15.486Z,84.40
2023-02-11T03:00:58.272Z,98.18
2023-02-11T03:03:38.942Z,78.32
2023-02-11T03:06:22.581Z,93.45
2023-02-11T03:09:00.432Z,84.88
2023-02-11T03:11:30.369Z,114.38
2023-02-11T03:14:04.469Z,92.03
2023-02-11T03:16:39.188Z,88.22
2023-02-11T03:19:15.078Z,89.85
2023-02-11T03:21:50.070Z,93.70
2023-02-11T03:24:25.518Z,88.50
2023-02-11T03:26:58.161Z,87.97
2023-02-11T03:29:38.545Z,91.72
2023-02-11T03:32:17.046Z,92.18
2023-02-11T03:34:54.014Z,90.75
2023-02-11T03:37:32.317Z,83.80
2023-02-11T03:40:05.962Z,91.43
2023-02-11T03:42:41.304Z,83.25
2023-02-11T03:45:15.385Z,80.32
2023-02-11T03:47:52.927Z,82.10
2023-02-11T03:50:24.250Z,86.65
2023-02-11T03:52:58.054Z,78.63
2023-02-11T03:55:29.293Z,85.28
2023-02-11T03:57:58.152Z,96.03
2023-02-11T04:00:32.293Z,82.20
2023-02-11T04:03:00.988Z,87.28
2023-02-11T04:05:29.560Z,93.20
2023-02-11T04:07:59.508Z,80.45
2023-02-11T04:10:28.111Z,85.28
2023-02-11T04:12:56.738Z,73.78
2023-02-11T04:15:25.918Z,88.18
2023-02-11T04:17:54.447Z,90.47
2023-02-11T04:20:22.950Z,81.18
2023-02-11T04:22:51.620Z,84.68
2023-02-11T04:25:21.800Z,79.05
2023-02-11T04:27:50.376Z,80.22
2023-02-11T04:30:19.485Z,83.55
2023-02-11T04:32:47.998Z,86.97
2023-02-11T04:35:16.578Z,78.72
2023-02-11T04:37:45.141Z,80.28
2023-02-11T04:40:14.180Z,89.20
2023-02-11T04:42:44.135Z,71.55
2023-02-11T04:45:12.672Z,77.43
2023-02-11T04:47:41.228Z,80.10
2023-02-11T04:50:10.251Z,91.72
2023-02-11T04:52:38.802Z,80.70
2023-02-11T04:55:08.358Z,89.57
2023-02-11T04:57:37.016Z,84.93
2023-02-11T05:00:09.973Z,80.45
2023-02-11T05:02:38.649Z,81.05
2023-02-11T05:05:07.652Z,73.80
2023-02-11T05:07:36.219Z,99.45
2023-02-11T05:10:05.368Z,74.90
2023-02-11T05:12:33.988Z,86.90
2023-02-11T05:15:02.605Z,72.82
2023-02-11T05:17:32.522Z,73.05
2023-02-11T05:20:01.057Z,77.43
2023-02-11T05:22:29.630Z,80.30
2023-02-11T05:24:58.267Z,79.22
2023-02-11T05:27:27.046Z,80.72
2023-02-11T05:29:55.623Z,83.25
2023-02-11T05:32:24.306Z,73.20
2023-02-11T05:34:54.185Z,84.72
2023-02-11T05:37:22.709Z,77.68
2023-02-11T05:39:51.421Z,81.57
2023-02-11T05:42:20.001Z,81.78
2023-02-11T05:44:50.532Z,80.55
2023-02-11T05:47:19.175Z,72.60
2023-02-11T05:49:47.896Z,78.93
2023-02-11T05:52:17.849Z,76.10
2023-02-11T05:54:46.333Z,81.82
2023-02-11T05:57:15.323Z,82.80
2023-02-11T05:59:44.146Z,74.35
2023-02-11T06:02:13.848Z,79.80
2023-02-11T06:04:42.541Z,73.68
2023-02-11T06:07:11.150Z,79.30
2023-02-11T06:09:41.228Z,77.93
2023-02-11T06:12:09.833Z,73.13
2023-02-11T06:14:38.462Z,73.25
2023-02-11T06:17:07.114Z,70.63
2023-02-11T06:19:35.808Z,77.82
2023-02-11T06:22:04.705Z,71.20
2023-02-11T06:24:58.489Z,63.78
2023-02-11T06:27:23.758Z,70.60
2023-02-11T06:29:52.896Z,69.82
2023-02-11T06:32:42.352Z,74.07
2023-02-11T06:35:12.067Z,72.63
2023-02-11T06:37:41.404Z,71.30
2023-02-11T06:40:10.573Z,74.82
2023-02-11T06:42:40.619Z,70.00
2023-02-11T06:45:11.079Z,68.68
2023-02-11T06:47:40.249Z,73.65
2023-02-11T06:50:13.418Z,72.15
2023-02-11T06:52:42.994Z,69.63
2023-02-11T06:55:11.662Z,70.63
2023-02-11T06:57:41.657Z,65.80
2023-02-11T07:00:12.302Z,64.80
2023-02-11T07:02:41.003Z,69.10
2023-02-11T07:05:10.429Z,69.18
2023-02-11T07:07:39.120Z,73.28
2023-02-11T07:10:08.659Z,71.05
2023-02-11T07:12:37.214Z,69.20
2023-02-11T07:15:08.113Z,64.50
2023-02-11T07:17:37.574Z,75.90
2023-02-11T07:20:07.266Z,61.30
2023-02-11T07:22:36.041Z,71.32
2023-02-11T07:25:05.109Z,65.40
2023-02-11T07:27:34.062Z,72.55
2023-02-11T07:30:03.785Z,60.97
2023-02-11T07:32:34.799Z,68.05
2023-02-11T07:35:03.918Z,75.97
2023-02-11T07:37:34.684Z,67.25
2023-02-11T07:40:03.612Z,64.68
2023-02-11T07:42:32.352Z,59.05
2023-02-11T07:45:01.073Z,65.63
2023-02-11T07:47:29.774Z,67.70
2023-02-11T07:49:59.817Z,75.40
2023-02-11T07:52:31.357Z,67.33
2023-02-11T07:54:59.971Z,65.10
2023-02-11T07:57:28.848Z,62.37
2023-02-11T07:59:57.445Z,70.57
2023-02-11T08:02:26.300Z,69.33
2023-02-11T08:04:55.140Z,58.03
2023-02-11T08:07:26.119Z,66.63
2023-02-11T08:09:55.585Z,58.33
2023-02-11T08:12:24.131Z,58.00
2023-02-11T08:14:52.780Z,63.97
2023-02-11T08:17:21.322Z,62.93
2023-02-11T08:19:49.995Z,74.47
2023-02-11T08:22:18.646Z,65.83
2023-02-11T08:24:51.321Z,54.53
2023-02-11T08:27:20.888Z,69.70
2023-02-11T08:29:49.564Z,55.77
2023-02-11T08:32:18.190Z,61.50
2023-02-11T08:34:46.931Z,55.03
2023-02-11T08:37:15.529Z,55.93
2023-02-11T08:39:44.501Z,58.60
2023-02-11T08:42:15.567Z,55.23
2023-02-11T08:44:44.911Z,52.03
2023-02-11T08:47:13.562Z,64.67
2023-02-11T08:49:42.495Z,47.60
2023-02-11T08:52:11.153Z,50.13
2023-02-11T08:54:39.775Z,52.00
2023-02-11T08:57:08.554Z,50.27
2023-02-11T08:59:40.039Z,48.40
2023-02-11T09:02:12.861Z,47.43
2023-02-11T09:04:42.364Z,54.27
2023-02-11T09:07:12.644Z,48.57
2023-02-11T09:09:41.282Z,52.60
2023-02-11T09:12:09.807Z,51.70
2023-02-11T09:14:39.936Z,45.37
2023-02-11T09:17:09.955Z,51.27
2023-02-11T09:19:38.650Z,52.60
2023-02-11T09:22:07.512Z,51.07
2023-02-11T09:24:36.221Z,45.57
2023-02-11T09:27:05.091Z,59.90
2023-02-11T09:29:33.681Z,48.63
2023-02-11T09:32:03.812Z,58.20
2023-02-11T09:34:32.479Z,47.90
2023-02-11T09:37:01.109Z,47.97
2023-02-11T09:39:30.101Z,53.00
2023-02-11T09:42:49.021Z,46.77
2023-02-11T09:45:23.339Z,50.53
2023-02-11T09:47:59.040Z,48.43
2023-02-11T09:50:33.988Z,53.50
2023-02-11T09:53:07.964Z,49.43
2023-02-11T09:55:42.601Z,52.90
2023-02-11T09:58:15.816Z,56.10
2023-02-11T10:00:52.445Z,53.27
2023-02-11T10:04:01.919Z,53.57
2023-02-11T10:06:46.405Z,52.60
2023-02-11T10:09:47.443Z,52.77
2023-02-11T10:12:39.997Z,47.73
2023-02-11T10:15:24.021Z,56.03
2023-02-11T10:18:23.317Z,50.30
2023-02-11T10:21:14.961Z,49.33
2023-02-11T10:23:52.737Z,43.53
2023-02-11T10:26:22.073Z,45.20
2023-02-11T10:28:56.075Z,53.67
2023-02-11T10:31:30.469Z,49.07
2023-02-11T10:34:04.145Z,44.30
2023-02-11T10:36:37.202Z,39.70
2023-02-11T10:39:14.678Z,50.70
2023-02-11T10:41:47.144Z,45.37
2023-02-11T10:44:28.620Z,45.50
2023-02-11T10:47:00.655Z,47.17
2023-02-11T10:49:40.350Z,43.53
2023-02-11T10:52:23.938Z,40.97
2023-02-11T10:55:07.382Z,45.23
2023-02-11T10:57:39.143Z,51.43
2023-02-11T11:00:29.700Z,60.50
2023-02-11T11:03:02.349Z,45.60
2023-02-11T11:05:36.506Z,53.00
2023-02-11T11:08:10.073Z,48.17
2023-02-11T11:10:44.176Z,49.97
2023-02-11T11:13:32.387Z,50.50
2023-02-11T11:16:24.002Z,47.77
2023-02-11T11:18:55.514Z,47.37
2023-02-11T11:21:27.646Z,50.43
2023-02-11T11:24:01.866Z,47.13
2023-02-11T11:26:42.618Z,49.03
2023-02-11T11:29:16.349Z,55.03
2023-02-11T11:31:56.949Z,52.23
2023-02-11T11:34:32.764Z,44.10
2023-02-11T11:37:11.369Z,42.90
2023-02-11T11:39:42.290Z,46.57
2023-02-11T11:42:27.962Z,46.60
2023-02-11T11:45:03.156Z,43.60
2023-02-11T11:47:41.953Z,53.27
2023-02-11T11:50:31.754Z,46.90
2023-02-11T11:53:06.126Z,47.90
2023-02-11T11:55:44.878Z,48.33
2023-02-11T11:58:19.196Z,51.30
2023-02-11T12:01:01.212Z,51.60
2023-02-11T12:04:07.755Z,48.50
2023-02-11T12:06:51.097Z,48.10
2023-02-11T12:09:34.002Z,49.30
2023-02-11T12:12:27.696Z,47.83
2023-02-11T12:15:14.815Z,46.77
2023-02-11T12:18:08.678Z,47.60
2023-02-11T12:21:03.450Z,46.50
2023-02-11T12:23:51.575Z,48.63
2023-02-11T12:26:24.576Z,44.80
2023-02-11T12:29:14.954Z,49.97
2023-02-11T12:32:03.006Z,45.00
2023-02-11T12:35:09.408Z,43.67
2023-02-11T12:37:59.587Z,58.10
2023-02-11T12:40:44.003Z,49.00
2023-02-11T12:43:21.947Z,50.03
2023-02-11T12:46:40.450Z,46.57
2023-02-11T12:49:46.677Z,43.10
2023-02-11T12:52:34.788Z,42.80
2023-02-11T12:55:17.434Z,50.87
2023-02-11T12:57:51.190Z,50.77
2023-02-11T13:00:25.705Z,49.07
2023-02-11T13:03:04.503Z,55.20
2023-02-11T13:05:40.197Z,44.43
2023-02-11T13:08:17.529Z,50.23
2023-02-11T13:10:54.830Z,47.37
2023-02-11T13:13:30.570Z,49.20
2023-02-11T13:16:07.675Z,45.50
2023-02-11T13:18:49.522Z,46.57
2023-02-11T13:21:52.637Z,45.83
2023-02-11T13:24:35.912Z,44.47
2023-02-11T13:27:20.128Z,49.17
2023-02-11T13:30:24.477Z,53.20
2023-02-11T13:33:22.648Z,46.70
2023-02-11T13:36:25.164Z,45.30
2023-02-11T13:38:59.791Z,45.47
2023-02-11T13:41:41.576Z,46.53
2023-02-11T13:44:28.380Z,44.17
2023-02-11T13:47:02.165Z,44.57
2023-02-11T13:49:40.883Z,44.33
2023-02-11T13:52:27.082Z,45.93
2023-02-11T13:55:03.243Z,44.60
2023-02-11T13:57:41.195Z,43.27
2023-02-11T14:00:50.372Z,39.50
2023-02-11T14:03:53.551Z,43.47
2023-02-11T14:06:46.821Z,42.50
2023-02-11T14:09:57.268Z,39.80
2023-02-11T14:12:36.725Z,45.10
2023-02-11T14:15:39.131Z,52.17
2023-02-11T14:18:38.568Z,41.97
2023-02-11T14:21:15.528Z,49.00
2023-02-11T14:23:45.153Z,41.97
2023-02-11T14:26:46.027Z,41.97
2023-02-11T14:29:22.673Z,55.10
2023-02-11T14:32:06.133Z,45.80
2023-02-11T14:34:52.577Z,48.67
2023-02-11T14:37:38.233Z,49.43
2023-02-11T14:40:25.610Z,43.03
2023-02-11T14:42:58.433Z,44.23
2023-02-11T14:45:31.097Z,41.33
2023-02-11T14:48:08.238Z,43.67
2023-02-11T14:50:47.219Z,50.57
2023-02-11T14:53:20.577Z,44.40
2023-02-11T14:55:52.364Z,44.60
2023-02-11T14:58:25.827Z,47.03
2023-02-11T15:00:59.110Z,43.00
2023-02-11T15:03:36.013Z,47.63
2023-02-11T15:06:14.130Z,42.40
2023-02-11T15:08:51.198Z,45.30
2023-02-11T15:11:23.496Z,45.63
2023-02-11T15:13:55.549Z,46.73
2023-02-11T15:16:27.307Z,45.17
2023-02-11T15:19:02.143Z,46.20
2023-02-11T15:21:34.488Z,45.57
2023-02-11T15:24:07.068Z,49.70
2023-02-11T15:26:36.016Z,50.47
2023-02-11T15:29:17.207Z,50.97
2023-02-11T15:31:45.913Z,50.60
2023-02-11T15:34:14.668Z,43.90
2023-02-11T15:36:43.858Z,46.43
2023-02-11T15:39:31.589Z,50.40
2023-02-11T15:42:23.668Z,44.63
2023-02-11T15:45:23.872Z,47.17
2023-02-11T15:47:55.451Z,47.57
2023-02-11T15:50:27.195Z,44.70
2023-02-11T15:52:58.614Z,49.57
2023-02-11T15:55:30.260Z,49.57
2023-02-11T15:58:02.739Z,50.27
2023-02-11T16:00:38.886Z,56.43
2023-02-11T16:03:07.728Z,51.03
2023-02-11T16:05:40.603Z,56.10
2023-02-11T16:08:24.548Z,47.37
2023-02-11T16:11:02.469Z,49.40
2023-02-11T16:13:33.791Z,50.50
2023-02-11T16:16:06.991Z,43.63
2023-02-11T16:18:40.180Z,42.33
2023-02-11T16:21:17.744Z,45.63
2023-02-11T16:23:54.323Z,42.30
2023-02-11T16:26:30.108Z,55.90
2023-02-11T16:29:14.025Z,49.13
2023-02-11T16:31:48.680Z,42.33
2023-02-11T16:34:19.894Z,47.03
2023-02-11T16:36:49.594Z,48.43
2023-02-11T16:39:21.633Z,45.93
2023-02-11T16:41:52.022Z,47.83
2023-02-11T16:44:20.543Z,50.97
2023-02-11T16:46:50.957Z,47.30
2023-02-11T16:49:24.523Z,49.77
2023-02-11T16:51:56.895Z,52.43
2023-02-11T16:54:25.566Z,49.60
2023-02-11T16:56:55.934Z,56.90
2023-02-11T16:59:24.972Z,52.30
2023-02-11T17:01:56.001Z,59.83
2023-02-11T17:04:31.210Z,46.43
2023-02-11T17:06:59.997Z,49.67
2023-02-11T17:09:31.117Z,47.17
2023-02-11T17:12:00.269Z,53.30
2023-02-11T17:14:29.203Z,54.27
2023-02-11T17:16:59.567Z,54.50
2023-02-11T17:19:28.263Z,67.10
2023-02-11T17:21:56.868Z,66.60
2023-02-11T17:24:25.518Z,49.07
2023-02-11T17:26:54.829Z,51.70
2023-02-11T17:29:26.159Z,55.80
2023-02-11T17:31:55.277Z,57.60
2023-02-11T17:34:39.163Z,58.00
2023-02-11T17:37:09.317Z,54.70
2023-02-11T17:39:39.383Z,49.80
2023-02-11T17:42:08.955Z,55.90
2023-02-11T17:44:37.504Z,55.23
2023-02-11T17:47:06.212Z,53.43
2023-02-11T17:49:37.370Z,54.03
2023-02-11T17:52:06.178Z,57.67
2023-02-11T17:54:34.953Z,52.03
2023-02-11T17:57:03.692Z,46.83
2023-02-11T17:59:35.468Z,65.87
2023-02-11T18:02:05.043Z,54.47
2023-02-11T18:04:35.200Z,54.50
2023-02-11T18:07:03.906Z,54.10
2023-02-11T18:09:32.554Z,55.37
2023-02-11T18:12:01.076Z,57.37
2023-02-11T18:14:29.837Z,64.53
2023-02-11T18:16:58.471Z,48.37
2023-02-11T18:19:30.485Z,50.57
2023-02-11T18:22:01.246Z,52.60
2023-02-11T18:24:29.894Z,50.33
2023-02-11T18:26:58.478Z,56.07
2023-02-11T18:29:27.199Z,48.63
2023-02-11T18:31:59.187Z,54.17
2023-02-11T18:34:28.042Z,52.80
2023-02-11T18:36:59.791Z,49.70
2023-02-11T18:39:30.018Z,51.27
2023-02-11T18:41:59.623Z,46.60
2023-02-11T18:44:28.538Z,52.77
2023-02-11T18:46:57.130Z,53.73
2023-02-11T18:49:25.676Z,51.40
2023-02-11T18:51:54.857Z,56.57
2023-02-11T18:54:23.369Z,59.70
2023-02-11T18:56:53.270Z,57.90
2023-02-11T18:59:21.784Z,61.33
2023-02-11T19:01:51.098Z,60.10
2023-02-11T19:04:20.209Z,58.10
2023-02-11T19:06:50.342Z,55.17
2023-02-11T19:09:21.390Z,54.60
2023-02-11T19:11:50.461Z,50.70
2023-02-11T19:14:24.593Z,55.83
2023-02-11T19:16:55.889Z,58.30
2023-02-11T19:19:28.180Z,53.03
2023-02-11T19:21:57.965Z,54.33
2023-02-11T19:24:27.706Z,55.77
2023-02-11T19:27:00.107Z,54.73
2023-02-11T19:29:32.095Z,51.50
2023-02-11T19:32:00.927Z,53.73
2023-02-11T19:34:29.780Z,62.00
2023-02-11T19:36:59.755Z,51.40
2023-02-11T19:39:28.456Z,55.57
2023-02-11T19:41:57.036Z,54.83
2023-02-11T19:44:25.647Z,49.57
2023-02-11T19:46:55.628Z,50.80
2023-02-11T19:49:25.989Z,54.63
2023-02-11T19:51:58.134Z,55.83
2023-02-11T19:54:29.082Z,53.97
2023-02-11T19:56:58.614Z,51.57
2023-02-11T19:59:27.157Z,51.50
2023-02-11T20:01:57.650Z,53.67
2023-02-11T20:04:26.436Z,51.30
2023-02-11T20:06:54.974Z,57.60
2023-02-11T20:09:23.542Z,55.17
2023-02-11T20:11:52.127Z,54.63
2023-02-11T20:14:21.108Z,63.73
2023-02-11T20:16:50.209Z,60.63
2023-02-11T20:19:22.811Z,62.90
2023-02-11T20:21:55.668Z,58.70
2023-02-11T20:24:26.502Z,52.70
2023-02-11T20:26:56.511Z,66.63
2023-02-11T20:29:26.544Z,52.00
2023-02-11T20:31:55.816Z,58.30
2023-02-11T20:34:25.966Z,54.67
2023-02-11T20:36:54.913Z,54.27
2023-02-11T20:39:25.187Z,57.23
2023-02-11T20:41:54.826Z,53.80
2023-02-11T20:44:24.632Z,53.50
2023-02-11T20:46:56.033Z,53.80
2023-02-11T20:49:28.318Z,63.50
2023-02-11T20:51:58.459Z,53.93
2023-02-11T20:54:27.356Z,55.23
2023-02-11T20:56:57.036Z,57.43
2023-02-11T20:59:26.972Z,53.27
2023-02-11T21:01:57.825Z,52.13
2023-02-11T21:04:30.396Z,53.37
2023-02-11T21:07:02.200Z,48.93
2023-02-11T21:09:33.683Z,57.67
2023-02-11T21:12:03.858Z,52.57
2023-02-11T21:14:32.586Z,55.30
2023-02-11T21:17:01.146Z,53.00
2023-02-11T21:19:31.102Z,56.37
2023-02-11T21:22:00.925Z,55.83
2023-02-11T21:24:30.842Z,56.20
2023-02-11T21:26:59.801Z,54.27
2023-02-11T21:29:28.269Z,50.90
2023-02-11T21:31:56.990Z,53.80
2023-02-11T21:34:26.036Z,51.63
2023-02-11T21:36:55.953Z,55.80
2023-02-11T21:39:24.540Z,54.13
2023-02-11T21:41:53.386Z,53.87
2023-02-11T21:44:21.922Z,49.40
2023-02-11T21:46:50.587Z,48.83
2023-02-11T21:49:21.315Z,56.27
2023-02-11T21:51:50.055Z,58.40
2023-02-11T21:54:20.148Z,61.63
2023-02-11T21:56:51.796Z,52.83
2023-02-11T21:59:20.364Z,54.57
2023-02-11T22:01:48.926Z,49.30
2023-02-11T22:04:18.173Z,54.60
2023-02-11T22:06:46.793Z,57.20
2023-02-11T22:09:15.442Z,54.93
2023-02-11T22:11:45.471Z,57.40
2023-02-11T22:14:14.168Z,57.23
2023-02-11T22:16:45.881Z,61.90
2023-02-11T22:19:14.816Z,63.57
2023-02-11T22:21:44.254Z,58.67
2023-02-11T22:24:13.069Z,62.20
2023-02-11T22:26:41.705Z,65.17
2023-02-11T22:29:12.344Z,56.90
2023-02-11T22:31:41.098Z,62.80
2023-02-11T22:34:09.964Z,58.43
2023-02-11T22:36:41.195Z,65.20
2023-02-11T22:39:14.120Z,60.50
2023-02-11T22:41:44.563Z,65.17
2023-02-11T22:44:16.344Z,59.07
2023-02-11T22:46:45.479Z,58.20
2023-02-11T22:49:17.444Z,62.63
2023-02-11T22:51:46.902Z,57.70
2023-02-11T22:54:17.731Z,57.50
2023-02-11T22:56:50.961Z,64.57
2023-02-11T22:59:21.868Z,64.30
2023-02-11T23:01:50.890Z,56.00
2023-02-11T23:04:20.865Z,68.57
2023-02-11T23:06:49.985Z,62.33
2023-02-11T23:09:18.540Z,55.80
2023-02-11T23:11:48.565Z,57.43
2023-02-11T23:14:17.179Z,66.73
2023-02-11T23:16:47.132Z,64.87
2023-02-11T23:19:17.052Z,66.47
2023-02-11T23:21:45.756Z,58.63
2023-02-11T23:24:16.165Z,63.50
2023-02-11T23:26:45.362Z,56.47
2023-02-11T23:29:14.443Z,52.17
2023-02-11T23:31:46.577Z,54.30
2023-02-11T23:34:20.351Z,50.33
2023-02-11T23:36:48.879Z,54.70
2023-02-11T23:39:17.930Z,51.20
2023-02-11T23:41:47.235Z,57.13
2023-02-11T23:44:15.771Z,48.50
2023-02-11T23:46:44.416Z,48.80
2023-02-11T23:49:15.598Z,59.13
2023-02-11T23:51:44.231Z,61.17
2023-02-11T23:54:15.879Z,55.60
2023-02-11T23:56:44.548Z,55.73
2023-02-11T23:59:13.326Z,61.90
